sensor_id;sensor_type;location;lat;lon;timestamp;P1;durP1;ratioP1;P2;durP2;ratioP2
12597;SDS011;6364;53.590;9.956;2022-12-04T00:00:10;70.05;;;30.67;;
12597;SDS011;6364;53.590;9.956;2022-12-04T00:02:37;72.13;;;30.45;;
12597;SDS011;6364;53.590;9.956;2022-12-04T00:05:03;71.40;;;29.67;;
12597;SDS011;6364;53.590;9.956;2022-12-04T00:07:28;72.85;;;30.15;;
12597;SDS011;6364;53.590;9.956;2022-12-04T00:09:53;65.03;;;28.98;;
12597;SDS011;6364;53.590;9.956;2022-12-04T00:12:19;67.47;;;29.30;;
12597;SDS011;6364;53.590;9.956;2022-12-04T00:14:44;66.18;;;29.48;;
12597;SDS011;6364;53.590;9.956;2022-12-04T00:17:09;65.13;;;28.38;;
12597;SDS011;6364;53.590;9.956;2022-12-04T00:19:35;68.78;;;29.45;;
12597;SDS011;6364;53.590;9.956;2022-12-04T00:22:00;67.72;;;29.27;;
12597;SDS011;6364;53.590;9.956;2022-12-04T00:24:25;63.33;;;28.85;;
12597;SDS011;6364;53.590;9.956;2022-12-04T00:26:51;68.43;;;28.83;;
12597;SDS011;6364;53.590;9.956;2022-12-04T00:29:16;63.70;;;28.60;;
12597;SDS011;6364;53.590;9.956;2022-12-04T00:31:43;61.97;;;27.95;;
12597;SDS011;6364;53.590;9.956;2022-12-04T00:34:08;62.17;;;26.50;;
12597;SDS011;6364;53.590;9.956;2022-12-04T00:36:33;60.00;;;27.35;;
12597;SDS011;6364;53.590;9.956;2022-12-04T00:38:59;64.95;;;27.98;;
12597;SDS011;6364;53.590;9.956;2022-12-04T00:41:28;57.90;;;26.00;;
12597;SDS011;6364;53.590;9.956;2022-12-04T00:43:55;60.30;;;27.02;;
12597;SDS011;6364;53.590;9.956;2022-12-04T00:46:20;63.35;;;27.20;;
12597;SDS011;6364;53.590;9.956;2022-12-04T00:48:46;58.78;;;27.00;;
12597;SDS011;6364;53.590;9.956;2022-12-04T00:51:12;60.63;;;26.88;;
12597;SDS011;6364;53.590;9.956;2022-12-04T00:53:39;58.70;;;27.02;;
12597;SDS011;6364;53.590;9.956;2022-12-04T00:56:06;58.33;;;27.15;;
12597;SDS011;6364;53.590;9.956;2022-12-04T00:58:35;59.72;;;26.88;;
12597;SDS011;6364;53.590;9.956;2022-12-04T01:01:02;58.95;;;26.27;;
12597;SDS011;6364;53.590;9.956;2022-12-04T01:03:29;63.33;;;26.88;;
12597;SDS011;6364;53.590;9.956;2022-12-04T01:05:55;57.92;;;25.67;;
12597;SDS011;6364;53.590;9.956;2022-12-04T01:08:20;61.60;;;27.77;;
12597;SDS011;6364;53.590;9.956;2022-12-04T01:10:45;57.30;;;25.15;;
12597;SDS011;6364;53.590;9.956;2022-12-04T01:13:11;58.90;;;27.05;;
12597;SDS011;6364;53.590;9.956;2022-12-04T01:15:39;54.08;;;25.45;;
12597;SDS011;6364;53.590;9.956;2022-12-04T01:18:06;59.40;;;25.80;;
12597;SDS011;6364;53.590;9.956;2022-12-04T01:20:32;54.08;;;26.25;;
12597;SDS011;6364;53.590;9.956;2022-12-04T01:22:57;57.35;;;25.80;;
12597;SDS011;6364;53.590;9.956;2022-12-04T01:25:22;57.00;;;26.75;;
12597;SDS011;6364;53.590;9.956;2022-12-04T01:27:48;57.10;;;26.17;;
12597;SDS011;6364;53.590;9.956;2022-12-04T01:30:13;58.65;;;26.30;;
12597;SDS011;6364;53.590;9.956;2022-12-04T01:32:38;61.25;;;26.23;;
12597;SDS011;6364;53.590;9.956;2022-12-04T01:35:04;59.53;;;26.60;;
12597;SDS011;6364;53.590;9.956;2022-12-04T01:37:30;63.78;;;27.38;;
12597;SDS011;6364;53.590;9.956;2022-12-04T01:39:56;56.35;;;26.25;;
12597;SDS011;6364;53.590;9.956;2022-12-04T01:42:21;60.40;;;26.85;;
12597;SDS011;6364;53.590;9.956;2022-12-04T01:47:51;63.90;;;26.45;;
12597;SDS011;6364;53.590;9.956;2022-12-04T01:50:18;59.90;;;27.67;;
12597;SDS011;6364;53.590;9.956;2022-12-04T01:52:43;56.72;;;26.05;;
12597;SDS011;6364;53.590;9.956;2022-12-04T01:55:09;57.45;;;26.88;;
12597;SDS011;6364;53.590;9.956;2022-12-04T01:57:34;57.97;;;26.58;;
12597;SDS011;6364;53.590;9.956;2022-12-04T02:00:10;59.05;;;26.73;;
12597;SDS011;6364;53.590;9.956;2022-12-04T02:02:38;67.57;;;27.90;;
12597;SDS011;6364;53.590;9.956;2022-12-04T02:05:06;64.95;;;26.80;;
12597;SDS011;6364;53.590;9.956;2022-12-04T02:07:33;61.58;;;27.77;;
12597;SDS011;6364;53.590;9.956;2022-12-04T02:09:59;60.33;;;27.45;;
12597;SDS011;6364;53.590;9.956;2022-12-04T02:15:19;58.03;;;26.15;;
12597;SDS011;6364;53.590;9.956;2022-12-04T02:17:52;62.70;;;27.20;;
12597;SDS011;6364;53.590;9.956;2022-12-04T02:28:50;59.22;;;26.65;;
12597;SDS011;6364;53.590;9.956;2022-12-04T02:31:47;64.07;;;27.70;;
12597;SDS011;6364;53.590;9.956;2022-12-04T02:34:24;59.55;;;25.52;;
12597;SDS011;6364;53.590;9.956;2022-12-04T02:37:02;61.30;;;27.63;;
12597;SDS011;6364;53.590;9.956;2022-12-04T02:42:02;66.82;;;27.92;;
12597;SDS011;6364;53.590;9.956;2022-12-04T02:44:36;64.82;;;27.95;;
12597;SDS011;6364;53.590;9.956;2022-12-04T02:47:06;61.97;;;26.80;;
12597;SDS011;6364;53.590;9.956;2022-12-04T02:49:37;61.33;;;27.30;;
12597;SDS011;6364;53.590;9.956;2022-12-04T02:52:07;61.90;;;27.45;;
12597;SDS011;6364;53.590;9.956;2022-12-04T02:54:38;56.85;;;26.30;;
12597;SDS011;6364;53.590;9.956;2022-12-04T02:57:06;65.70;;;26.85;;
12597;SDS011;6364;53.590;9.956;2022-12-04T02:59:38;60.30;;;26.83;;
12597;SDS011;6364;53.590;9.956;2022-12-04T03:02:09;59.95;;;26.40;;
12597;SDS011;6364;53.590;9.956;2022-12-04T03:04:38;49.25;;;20.58;;
12597;SDS011;6364;53.590;9.956;2022-12-04T03:07:05;59.38;;;26.30;;
12597;SDS011;6364;53.590;9.956;2022-12-04T03:10:09;60.97;;;26.90;;
12597;SDS011;6364;53.590;9.956;2022-12-04T03:15:06;63.88;;;27.00;;
12597;SDS011;6364;53.590;9.956;2022-12-04T03:17:36;59.83;;;26.23;;
12597;SDS011;6364;53.590;9.956;2022-12-04T03:20:05;57.78;;;26.67;;
12597;SDS011;6364;53.590;9.956;2022-12-04T03:22:33;62.35;;;26.65;;
12597;SDS011;6364;53.590;9.956;2022-12-04T03:25:01;65.13;;;27.52;;
12597;SDS011;6364;53.590;9.956;2022-12-04T03:30:17;63.00;;;25.48;;
12597;SDS011;6364;53.590;9.956;2022-12-04T03:32:51;58.15;;;25.83;;
12597;SDS011;6364;53.590;9.956;2022-12-04T03:35:24;60.60;;;26.60;;
12597;SDS011;6364;53.590;9.956;2022-12-04T03:38:07;60.45;;;26.85;;
12597;SDS011;6364;53.590;9.956;2022-12-04T03:40:42;59.50;;;25.95;;
12597;SDS011;6364;53.590;9.956;2022-12-04T03:43:12;59.13;;;26.85;;
12597;SDS011;6364;53.590;9.956;2022-12-04T03:48:14;57.75;;;26.20;;
12597;SDS011;6364;53.590;9.956;2022-12-04T03:51:06;45.97;;;19.90;;
12597;SDS011;6364;53.590;9.956;2022-12-04T03:53:38;59.45;;;25.02;;
12597;SDS011;6364;53.590;9.956;2022-12-04T03:56:08;59.28;;;24.80;;
12597;SDS011;6364;53.590;9.956;2022-12-04T03:58:38;61.00;;;25.90;;
12597;SDS011;6364;53.590;9.956;2022-12-04T04:01:07;57.15;;;25.63;;
12597;SDS011;6364;53.590;9.956;2022-12-04T04:03:35;58.60;;;26.35;;
12597;SDS011;6364;53.590;9.956;2022-12-04T04:06:10;57.47;;;26.17;;
12597;SDS011;6364;53.590;9.956;2022-12-04T04:08:38;59.45;;;26.30;;
12597;SDS011;6364;53.590;9.956;2022-12-04T04:16:48;61.63;;;26.08;;
12597;SDS011;6364;53.590;9.956;2022-12-04T04:19:39;60.53;;;26.05;;
12597;SDS011;6364;53.590;9.956;2022-12-04T04:22:24;59.13;;;25.20;;
12597;SDS011;6364;53.590;9.956;2022-12-04T04:25:12;59.00;;;24.67;;
12597;SDS011;6364;53.590;9.956;2022-12-04T04:27:40;59.00;;;25.65;;
12597;SDS011;6364;53.590;9.956;2022-12-04T04:30:06;62.53;;;26.80;;
12597;SDS011;6364;53.590;9.956;2022-12-04T04:32:35;57.90;;;25.80;;
12597;SDS011;6364;53.590;9.956;2022-12-04T04:45:42;61.40;;;26.38;;
12597;SDS011;6364;53.590;9.956;2022-12-04T04:48:14;62.55;;;25.92;;
12597;SDS011;6364;53.590;9.956;2022-12-04T04:50:42;62.72;;;27.20;;
12597;SDS011;6364;53.590;9.956;2022-12-04T04:53:10;58.40;;;25.80;;
12597;SDS011;6364;53.590;9.956;2022-12-04T04:55:37;58.33;;;26.33;;
12597;SDS011;6364;53.590;9.956;2022-12-04T04:58:11;58.03;;;26.33;;
12597;SDS011;6364;53.590;9.956;2022-12-04T05:00:37;57.20;;;26.40;;
12597;SDS011;6364;53.590;9.956;2022-12-04T05:03:03;65.40;;;27.05;;
12597;SDS011;6364;53.590;9.956;2022-12-04T05:05:28;60.08;;;26.92;;
12597;SDS011;6364;53.590;9.956;2022-12-04T05:07:54;59.10;;;26.67;;
12597;SDS011;6364;53.590;9.956;2022-12-04T05:10:19;61.80;;;26.88;;
12597;SDS011;6364;53.590;9.956;2022-12-04T05:12:44;57.80;;;26.25;;
12597;SDS011;6364;53.590;9.956;2022-12-04T05:15:10;65.22;;;27.63;;
12597;SDS011;6364;53.590;9.956;2022-12-04T05:17:35;59.95;;;26.77;;
12597;SDS011;6364;53.590;9.956;2022-12-04T05:20:01;60.83;;;27.00;;
12597;SDS011;6364;53.590;9.956;2022-12-04T05:22:31;62.35;;;26.17;;
12597;SDS011;6364;53.590;9.956;2022-12-04T05:24:57;59.88;;;26.45;;
12597;SDS011;6364;53.590;9.956;2022-12-04T05:27:24;62.85;;;27.05;;
12597;SDS011;6364;53.590;9.956;2022-12-04T05:29:56;59.30;;;26.33;;
12597;SDS011;6364;53.590;9.956;2022-12-04T05:32:23;65.28;;;27.10;;
12597;SDS011;6364;53.590;9.956;2022-12-04T05:34:52;62.35;;;28.05;;
12597;SDS011;6364;53.590;9.956;2022-12-04T05:37:19;60.08;;;26.83;;
12597;SDS011;6364;53.590;9.956;2022-12-04T05:39:45;60.55;;;26.85;;
12597;SDS011;6364;53.590;9.956;2022-12-04T05:42:10;59.25;;;27.08;;
12597;SDS011;6364;53.590;9.956;2022-12-04T05:44:36;60.92;;;26.42;;
12597;SDS011;6364;53.590;9.956;2022-12-04T05:47:01;66.18;;;26.88;;
12597;SDS011;6364;53.590;9.956;2022-12-04T05:49:30;57.15;;;26.98;;
12597;SDS011;6364;53.590;9.956;2022-12-04T05:51:56;64.63;;;27.00;;
12597;SDS011;6364;53.590;9.956;2022-12-04T05:54:22;59.75;;;26.58;;
12597;SDS011;6364;53.590;9.956;2022-12-04T05:56:47;60.67;;;26.70;;
12597;SDS011;6364;53.590;9.956;2022-12-04T05:59:13;63.90;;;27.50;;
12597;SDS011;6364;53.590;9.956;2022-12-04T06:01:39;67.75;;;27.80;;
12597;SDS011;6364;53.590;9.956;2022-12-04T06:04:05;62.83;;;27.13;;
12597;SDS011;6364;53.590;9.956;2022-12-04T06:06:30;64.97;;;28.58;;
12597;SDS011;6364;53.590;9.956;2022-12-04T06:08:56;63.63;;;28.08;;
12597;SDS011;6364;53.590;9.956;2022-12-04T06:11:26;63.35;;;27.65;;
12597;SDS011;6364;53.590;9.956;2022-12-04T06:13:54;63.47;;;26.30;;
12597;SDS011;6364;53.590;9.956;2022-12-04T06:16:24;63.28;;;27.17;;
12597;SDS011;6364;53.590;9.956;2022-12-04T06:18:55;60.30;;;27.08;;
12597;SDS011;6364;53.590;9.956;2022-12-04T06:21:22;64.90;;;28.48;;
12597;SDS011;6364;53.590;9.956;2022-12-04T06:23:48;65.88;;;29.33;;
12597;SDS011;6364;53.590;9.956;2022-12-04T06:26:15;64.85;;;27.42;;
12597;SDS011;6364;53.590;9.956;2022-12-04T06:28:40;63.47;;;28.35;;
12597;SDS011;6364;53.590;9.956;2022-12-04T06:31:06;68.30;;;28.45;;
12597;SDS011;6364;53.590;9.956;2022-12-04T06:33:33;66.30;;;29.48;;
12597;SDS011;6364;53.590;9.956;2022-12-04T06:38:31;64.22;;;28.25;;
12597;SDS011;6364;53.590;9.956;2022-12-04T06:40:57;63.28;;;27.85;;
12597;SDS011;6364;53.590;9.956;2022-12-04T06:43:22;63.20;;;25.98;;
12597;SDS011;6364;53.590;9.956;2022-12-04T06:45:48;67.20;;;27.27;;
12597;SDS011;6364;53.590;9.956;2022-12-04T06:48:13;69.05;;;27.52;;
12597;SDS011;6364;53.590;9.956;2022-12-04T06:50:40;64.25;;;28.42;;
12597;SDS011;6364;53.590;9.956;2022-12-04T06:53:05;66.03;;;28.92;;
12597;SDS011;6364;53.590;9.956;2022-12-04T06:55:30;67.75;;;28.63;;
12597;SDS011;6364;53.590;9.956;2022-12-04T06:57:55;65.22;;;27.55;;
12597;SDS011;6364;53.590;9.956;2022-12-04T07:00:21;70.72;;;29.45;;
12597;SDS011;6364;53.590;9.956;2022-12-04T07:02:46;69.82;;;30.25;;
12597;SDS011;6364;53.590;9.956;2022-12-04T07:05:11;75.32;;;29.48;;
12597;SDS011;6364;53.590;9.956;2022-12-04T07:07:37;67.57;;;28.50;;
12597;SDS011;6364;53.590;9.956;2022-12-04T07:10:03;70.43;;;29.52;;
12597;SDS011;6364;53.590;9.956;2022-12-04T07:12:28;76.00;;;30.13;;
12597;SDS011;6364;53.590;9.956;2022-12-04T07:14:54;64.70;;;28.02;;
12597;SDS011;6364;53.590;9.956;2022-12-04T07:17:19;71.93;;;29.00;;
12597;SDS011;6364;53.590;9.956;2022-12-04T07:19:44;72.13;;;30.67;;
12597;SDS011;6364;53.590;9.956;2022-12-04T07:22:10;63.20;;;28.35;;
12597;SDS011;6364;53.590;9.956;2022-12-04T07:24:35;73.72;;;29.17;;
12597;SDS011;6364;53.590;9.956;2022-12-04T07:27:01;74.18;;;29.27;;
12597;SDS011;6364;53.590;9.956;2022-12-04T07:29:27;68.95;;;28.77;;
12597;SDS011;6364;53.590;9.956;2022-12-04T07:31:52;74.70;;;30.35;;
12597;SDS011;6364;53.590;9.956;2022-12-04T07:34:18;67.35;;;29.27;;
12597;SDS011;6364;53.590;9.956;2022-12-04T07:36:43;67.07;;;29.52;;
12597;SDS011;6364;53.590;9.956;2022-12-04T07:39:08;68.75;;;29.20;;
12597;SDS011;6364;53.590;9.956;2022-12-04T07:41:34;70.43;;;29.48;;
12597;SDS011;6364;53.590;9.956;2022-12-04T07:43:59;70.18;;;28.20;;
12597;SDS011;6364;53.590;9.956;2022-12-04T07:46:25;75.95;;;30.63;;
12597;SDS011;6364;53.590;9.956;2022-12-04T07:48:51;64.93;;;28.75;;
12597;SDS011;6364;53.590;9.956;2022-12-04T07:51:20;68.60;;;29.13;;
12597;SDS011;6364;53.590;9.956;2022-12-04T07:53:46;71.97;;;28.70;;
12597;SDS011;6364;53.590;9.956;2022-12-04T07:56:12;66.03;;;28.20;;
12597;SDS011;6364;53.590;9.956;2022-12-04T07:58:40;79.95;;;29.65;;
12597;SDS011;6364;53.590;9.956;2022-12-04T08:01:06;81.35;;;30.27;;
12597;SDS011;6364;53.590;9.956;2022-12-04T08:03:33;77.35;;;30.25;;
12597;SDS011;6364;53.590;9.956;2022-12-04T08:05:59;74.95;;;29.35;;
12597;SDS011;6364;53.590;9.956;2022-12-04T08:08:25;78.18;;;30.15;;
12597;SDS011;6364;53.590;9.956;2022-12-04T08:10:50;75.57;;;30.50;;
12597;SDS011;6364;53.590;9.956;2022-12-04T08:13:16;74.13;;;30.23;;
12597;SDS011;6364;53.590;9.956;2022-12-04T08:15:41;73.50;;;30.05;;
12597;SDS011;6364;53.590;9.956;2022-12-04T08:18:06;72.45;;;30.17;;
12597;SDS011;6364;53.590;9.956;2022-12-04T08:20:32;71.88;;;29.77;;
12597;SDS011;6364;53.590;9.956;2022-12-04T08:22:57;69.28;;;27.85;;
12597;SDS011;6364;53.590;9.956;2022-12-04T08:25:22;69.43;;;29.50;;
12597;SDS011;6364;53.590;9.956;2022-12-04T08:27:48;72.07;;;29.17;;
12597;SDS011;6364;53.590;9.956;2022-12-04T08:30:13;71.03;;;29.40;;
12597;SDS011;6364;53.590;9.956;2022-12-04T08:32:39;71.95;;;30.17;;
12597;SDS011;6364;53.590;9.956;2022-12-04T08:35:04;72.28;;;29.27;;
12597;SDS011;6364;53.590;9.956;2022-12-04T08:37:30;74.38;;;30.00;;
12597;SDS011;6364;53.590;9.956;2022-12-04T08:39:55;77.00;;;30.27;;
12597;SDS011;6364;53.590;9.956;2022-12-04T08:42:22;72.40;;;30.52;;
12597;SDS011;6364;53.590;9.956;2022-12-04T08:44:47;73.82;;;29.05;;
12597;SDS011;6364;53.590;9.956;2022-12-04T08:47:13;75.22;;;28.70;;
12597;SDS011;6364;53.590;9.956;2022-12-04T08:49:39;79.07;;;32.00;;
12597;SDS011;6364;53.590;9.956;2022-12-04T08:52:04;71.38;;;30.95;;
12597;SDS011;6364;53.590;9.956;2022-12-04T08:54:29;68.78;;;28.65;;
12597;SDS011;6364;53.590;9.956;2022-12-04T08:56:54;68.93;;;27.98;;
12597;SDS011;6364;53.590;9.956;2022-12-04T08:59:20;68.93;;;29.33;;
12597;SDS011;6364;53.590;9.956;2022-12-04T09:01:45;74.20;;;31.30;;
12597;SDS011;6364;53.590;9.956;2022-12-04T09:04:13;74.45;;;30.85;;
12597;SDS011;6364;53.590;9.956;2022-12-04T09:06:39;70.45;;;30.02;;
12597;SDS011;6364;53.590;9.956;2022-12-04T09:09:04;70.72;;;29.40;;
12597;SDS011;6364;53.590;9.956;2022-12-04T09:11:29;70.45;;;28.20;;
12597;SDS011;6364;53.590;9.956;2022-12-04T09:13:56;71.82;;;30.27;;
12597;SDS011;6364;53.590;9.956;2022-12-04T09:16:22;71.10;;;29.27;;
12597;SDS011;6364;53.590;9.956;2022-12-04T09:18:49;71.30;;;28.48;;
12597;SDS011;6364;53.590;9.956;2022-12-04T09:21:15;67.95;;;28.15;;
12597;SDS011;6364;53.590;9.956;2022-12-04T09:23:42;70.45;;;29.50;;
12597;SDS011;6364;53.590;9.956;2022-12-04T09:28:42;68.15;;;28.73;;
12597;SDS011;6364;53.590;9.956;2022-12-04T09:31:08;70.70;;;28.95;;
12597;SDS011;6364;53.590;9.956;2022-12-04T09:33:33;60.92;;;28.15;;
12597;SDS011;6364;53.590;9.956;2022-12-04T09:35:59;68.15;;;28.08;;
12597;SDS011;6364;53.590;9.956;2022-12-04T09:38:28;63.17;;;27.63;;
12597;SDS011;6364;53.590;9.956;2022-12-04T09:44:16;62.70;;;27.00;;
12597;SDS011;6364;53.590;9.956;2022-12-04T09:46:48;61.58;;;27.58;;
12597;SDS011;6364;53.590;9.956;2022-12-04T09:49:17;63.15;;;27.88;;
12597;SDS011;6364;53.590;9.956;2022-12-04T09:52:01;59.67;;;26.65;;
12597;SDS011;6364;53.590;9.956;2022-12-04T09:54:31;62.08;;;27.63;;
12597;SDS011;6364;53.590;9.956;2022-12-04T09:57:00;61.33;;;26.75;;
12597;SDS011;6364;53.590;9.956;2022-12-04T09:59:28;57.92;;;27.17;;
12597;SDS011;6364;53.590;9.956;2022-12-04T10:04:42;60.33;;;26.52;;
12597;SDS011;6364;53.590;9.956;2022-12-04T10:07:12;59.97;;;26.23;;
12597;SDS011;6364;53.590;9.956;2022-12-04T10:12:26;61.25;;;26.95;;
12597;SDS011;6364;53.590;9.956;2022-12-04T10:17:45;57.30;;;25.98;;
12597;SDS011;6364;53.590;9.956;2022-12-04T10:25:20;56.83;;;25.65;;
12597;SDS011;6364;53.590;9.956;2022-12-04T10:27:47;53.00;;;24.85;;
12597;SDS011;6364;53.590;9.956;2022-12-04T10:30:20;57.27;;;26.60;;
12597;SDS011;6364;53.590;9.956;2022-12-04T10:32:53;53.65;;;25.50;;
12597;SDS011;6364;53.590;9.956;2022-12-04T10:35:29;51.88;;;24.23;;
12597;SDS011;6364;53.590;9.956;2022-12-04T10:37:56;55.80;;;25.63;;
12597;SDS011;6364;53.590;9.956;2022-12-04T10:42:57;57.80;;;26.20;;
12597;SDS011;6364;53.590;9.956;2022-12-04T10:45:27;53.45;;;25.98;;
12597;SDS011;6364;53.590;9.956;2022-12-04T10:47:52;50.60;;;24.58;;
12597;SDS011;6364;53.590;9.956;2022-12-04T10:50:19;54.55;;;25.50;;
12597;SDS011;6364;53.590;9.956;2022-12-04T10:52:46;60.35;;;26.63;;
12597;SDS011;6364;53.590;9.956;2022-12-04T10:55:12;53.63;;;25.55;;
12597;SDS011;6364;53.590;9.956;2022-12-04T10:57:41;53.65;;;24.00;;
12597;SDS011;6364;53.590;9.956;2022-12-04T11:00:25;52.08;;;25.67;;
12597;SDS011;6364;53.590;9.956;2022-12-04T11:02:55;57.83;;;25.80;;
12597;SDS011;6364;53.590;9.956;2022-12-04T11:08:04;49.92;;;24.45;;
12597;SDS011;6364;53.590;9.956;2022-12-04T11:13:05;53.20;;;25.65;;
12597;SDS011;6364;53.590;9.956;2022-12-04T11:15:42;50.72;;;25.08;;
12597;SDS011;6364;53.590;9.956;2022-12-04T11:20:57;48.53;;;23.50;;
12597;SDS011;6364;53.590;9.956;2022-12-04T11:23:24;55.45;;;25.75;;
12597;SDS011;6364;53.590;9.956;2022-12-04T11:25:54;53.00;;;25.42;;
12597;SDS011;6364;53.590;9.956;2022-12-04T11:28:22;58.10;;;25.67;;
12597;SDS011;6364;53.590;9.956;2022-12-04T11:30:50;53.72;;;24.30;;
12597;SDS011;6364;53.590;9.956;2022-12-04T11:33:27;50.22;;;24.63;;
12597;SDS011;6364;53.590;9.956;2022-12-04T11:35:53;56.28;;;25.73;;
12597;SDS011;6364;53.590;9.956;2022-12-04T11:38:21;51.53;;;24.45;;
12597;SDS011;6364;53.590;9.956;2022-12-04T11:40:50;56.40;;;25.83;;
12597;SDS011;6364;53.590;9.956;2022-12-04T11:43:18;52.10;;;25.90;;
12597;SDS011;6364;53.590;9.956;2022-12-04T11:45:53;52.25;;;25.27;;
12597;SDS011;6364;53.590;9.956;2022-12-04T11:48:22;50.45;;;24.40;;
12597;SDS011;6364;53.590;9.956;2022-12-04T11:53:18;49.92;;;26.00;;
12597;SDS011;6364;53.590;9.956;2022-12-04T11:56:24;55.55;;;25.95;;
12597;SDS011;6364;53.590;9.956;2022-12-04T12:04:21;53.22;;;25.00;;
12597;SDS011;6364;53.590;9.956;2022-12-04T12:13:19;57.97;;;24.20;;
12597;SDS011;6364;53.590;9.956;2022-12-04T12:16:13;54.45;;;24.63;;
12597;SDS011;6364;53.590;9.956;2022-12-04T12:19:06;52.60;;;23.40;;
12597;SDS011;6364;53.590;9.956;2022-12-04T12:21:51;47.90;;;23.00;;
12597;SDS011;6364;53.590;9.956;2022-12-04T12:24:33;51.40;;;24.30;;
12597;SDS011;6364;53.590;9.956;2022-12-04T12:35:04;46.20;;;23.20;;
12597;SDS011;6364;53.590;9.956;2022-12-04T12:37:33;50.28;;;24.60;;
12597;SDS011;6364;53.590;9.956;2022-12-04T12:40:05;50.88;;;24.45;;
12597;SDS011;6364;53.590;9.956;2022-12-04T12:42:37;49.30;;;24.08;;
12597;SDS011;6364;53.590;9.956;2022-12-04T12:50:20;48.25;;;22.65;;
12597;SDS011;6364;53.590;9.956;2022-12-04T12:53:30;46.50;;;23.45;;
12597;SDS011;6364;53.590;9.956;2022-12-04T12:55:53;50.75;;;23.35;;
12597;SDS011;6364;53.590;9.956;2022-12-04T12:58:23;46.37;;;22.57;;
12597;SDS011;6364;53.590;9.956;2022-12-04T13:06:12;46.17;;;21.60;;
12597;SDS011;6364;53.590;9.956;2022-12-04T13:08:42;44.67;;;22.75;;
12597;SDS011;6364;53.590;9.956;2022-12-04T13:11:16;44.75;;;21.63;;
12597;SDS011;6364;53.590;9.956;2022-12-04T13:13:45;47.97;;;23.08;;
12597;SDS011;6364;53.590;9.956;2022-12-04T13:16:22;42.80;;;22.23;;
12597;SDS011;6364;53.590;9.956;2022-12-04T13:21:33;41.83;;;21.55;;
12597;SDS011;6364;53.590;9.956;2022-12-04T13:26:50;43.08;;;22.48;;
12597;SDS011;6364;53.590;9.956;2022-12-04T13:42:50;40.47;;;20.90;;
12597;SDS011;6364;53.590;9.956;2022-12-04T13:45:25;41.65;;;21.63;;
12597;SDS011;6364;53.590;9.956;2022-12-04T13:47:59;39.10;;;20.80;;
12597;SDS011;6364;53.590;9.956;2022-12-04T13:50:29;40.72;;;19.67;;
12597;SDS011;6364;53.590;9.956;2022-12-04T13:52:56;41.63;;;19.90;;
12597;SDS011;6364;53.590;9.956;2022-12-04T13:55:23;39.30;;;20.05;;
12597;SDS011;6364;53.590;9.956;2022-12-04T14:00:36;45.33;;;21.48;;
12597;SDS011;6364;53.590;9.956;2022-12-04T14:03:03;39.75;;;20.05;;
12597;SDS011;6364;53.590;9.956;2022-12-04T14:05:32;39.40;;;20.60;;
12597;SDS011;6364;53.590;9.956;2022-12-04T14:08:23;45.15;;;21.20;;
12597;SDS011;6364;53.590;9.956;2022-12-04T14:10:57;41.13;;;20.77;;
12597;SDS011;6364;53.590;9.956;2022-12-04T14:13:26;37.75;;;19.88;;
12597;SDS011;6364;53.590;9.956;2022-12-04T14:16:03;41.17;;;20.20;;
12597;SDS011;6364;53.590;9.956;2022-12-04T14:18:31;36.70;;;19.77;;
12597;SDS011;6364;53.590;9.956;2022-12-04T14:20:57;38.88;;;21.00;;
12597;SDS011;6364;53.590;9.956;2022-12-04T14:23:26;40.47;;;20.77;;
12597;SDS011;6364;53.590;9.956;2022-12-04T14:25:58;43.38;;;20.80;;
12597;SDS011;6364;53.590;9.956;2022-12-04T14:33:31;45.42;;;22.45;;
12597;SDS011;6364;53.590;9.956;2022-12-04T14:36:01;43.55;;;22.17;;
12597;SDS011;6364;53.590;9.956;2022-12-04T14:38:43;43.25;;;21.58;;
12597;SDS011;6364;53.590;9.956;2022-12-04T14:41:09;43.60;;;21.85;;
12597;SDS011;6364;53.590;9.956;2022-12-04T14:43:38;48.30;;;23.60;;
12597;SDS011;6364;53.590;9.956;2022-12-04T14:46:06;46.70;;;22.98;;
12597;SDS011;6364;53.590;9.956;2022-12-04T14:48:50;36.08;;;17.98;;
12597;SDS011;6364;53.590;9.956;2022-12-04T14:54:11;47.15;;;23.75;;
12597;SDS011;6364;53.590;9.956;2022-12-04T14:59:23;53.38;;;25.40;;
12597;SDS011;6364;53.590;9.956;2022-12-04T15:01:57;49.88;;;23.35;;
12597;SDS011;6364;53.590;9.956;2022-12-04T15:04:32;57.22;;;24.05;;
12597;SDS011;6364;53.590;9.956;2022-12-04T15:06:59;50.88;;;23.60;;
12597;SDS011;6364;53.590;9.956;2022-12-04T15:09:24;51.17;;;26.00;;
12597;SDS011;6364;53.590;9.956;2022-12-04T15:12:21;56.55;;;24.60;;
12597;SDS011;6364;53.590;9.956;2022-12-04T15:15:07;57.45;;;26.48;;
12597;SDS011;6364;53.590;9.956;2022-12-04T15:17:42;54.10;;;26.20;;
12597;SDS011;6364;53.590;9.956;2022-12-04T15:20:17;56.70;;;25.95;;
12597;SDS011;6364;53.590;9.956;2022-12-04T15:22:43;53.00;;;24.75;;
12597;SDS011;6364;53.590;9.956;2022-12-04T15:25:13;58.42;;;26.40;;
12597;SDS011;6364;53.590;9.956;2022-12-04T15:27:40;56.38;;;27.15;;
12597;SDS011;6364;53.590;9.956;2022-12-04T15:30:06;52.35;;;25.73;;
12597;SDS011;6364;53.590;9.956;2022-12-04T15:35:06;56.85;;;23.92;;
12597;SDS011;6364;53.590;9.956;2022-12-04T15:37:33;59.92;;;25.60;;
12597;SDS011;6364;53.590;9.956;2022-12-04T15:39:58;52.17;;;25.48;;
12597;SDS011;6364;53.590;9.956;2022-12-04T15:42:28;53.63;;;25.73;;
12597;SDS011;6364;53.590;9.956;2022-12-04T15:47:25;54.67;;;26.35;;
12597;SDS011;6364;53.590;9.956;2022-12-04T15:49:52;53.45;;;25.02;;
12597;SDS011;6364;53.590;9.956;2022-12-04T15:52:18;58.92;;;26.88;;
12597;SDS011;6364;53.590;9.956;2022-12-04T15:54:52;55.55;;;25.80;;
12597;SDS011;6364;53.590;9.956;2022-12-04T16:00:03;57.33;;;25.85;;
12597;SDS011;6364;53.590;9.956;2022-12-04T16:02:33;49.88;;;24.92;;
12597;SDS011;6364;53.590;9.956;2022-12-04T16:08:20;54.30;;;24.83;;
12597;SDS011;6364;53.590;9.956;2022-12-04T16:10:58;49.03;;;23.92;;
12597;SDS011;6364;53.590;9.956;2022-12-04T16:13:27;54.50;;;25.45;;
12597;SDS011;6364;53.590;9.956;2022-12-04T16:15:54;53.92;;;25.83;;
12597;SDS011;6364;53.590;9.956;2022-12-04T16:18:20;51.60;;;25.08;;
12597;SDS011;6364;53.590;9.956;2022-12-04T16:20:45;55.13;;;25.83;;
12597;SDS011;6364;53.590;9.956;2022-12-04T16:23:10;53.33;;;23.95;;
12597;SDS011;6364;53.590;9.956;2022-12-04T16:25:36;52.00;;;24.35;;
12597;SDS011;6364;53.590;9.956;2022-12-04T16:28:01;52.85;;;25.13;;
12597;SDS011;6364;53.590;9.956;2022-12-04T16:30:27;51.22;;;24.35;;
12597;SDS011;6364;53.590;9.956;2022-12-04T16:32:54;55.53;;;25.85;;
12597;SDS011;6364;53.590;9.956;2022-12-04T16:35:20;46.08;;;23.00;;
12597;SDS011;6364;53.590;9.956;2022-12-04T16:37:45;51.30;;;24.20;;
12597;SDS011;6364;53.590;9.956;2022-12-04T16:40:11;50.65;;;24.65;;
12597;SDS011;6364;53.590;9.956;2022-12-04T16:42:37;49.90;;;24.05;;
12597;SDS011;6364;53.590;9.956;2022-12-04T16:45:10;54.95;;;23.58;;
12597;SDS011;6364;53.590;9.956;2022-12-04T16:47:46;51.90;;;24.17;;
12597;SDS011;6364;53.590;9.956;2022-12-04T16:50:11;52.85;;;24.77;;
12597;SDS011;6364;53.590;9.956;2022-12-04T16:52:36;55.83;;;26.42;;
12597;SDS011;6364;53.590;9.956;2022-12-04T16:55:02;50.83;;;25.55;;
12597;SDS011;6364;53.590;9.956;2022-12-04T16:57:27;50.75;;;24.48;;
12597;SDS011;6364;53.590;9.956;2022-12-04T16:59:52;51.20;;;24.35;;
12597;SDS011;6364;53.590;9.956;2022-12-04T17:02:19;55.28;;;26.27;;
12597;SDS011;6364;53.590;9.956;2022-12-04T17:04:47;56.42;;;25.20;;
12597;SDS011;6364;53.590;9.956;2022-12-04T17:07:13;52.58;;;24.90;;
12597;SDS011;6364;53.590;9.956;2022-12-04T17:09:38;54.58;;;26.38;;
12597;SDS011;6364;53.590;9.956;2022-12-04T17:12:03;60.80;;;25.45;;